Flight Track Log - Related Links

Times and Time Zones

All times are in EDT time to prevent confusion due to time zone crossing. See the THY2458 flight status page for this flight to view local times or setup timezone preferences in your user account.

Time Position Orientation Groundspeed Altitude Reporting Facility
EDT Latitude Longitude Course Direction KTS MPH feet Rate Location/Type
Fri 02:45:00 AM 40.3590 29.9104 126° Southeast  Level Estimated
Fri 02:46:00 AM 40.2897 30.0301 127° Southeast  Level Estimated
Fri 02:47:00 AM 40.2203 30.1497 127° Southeast  Level Estimated
Fri 02:48:00 AM 40.1508 30.2690 127° Southeast  Level Estimated
Fri 02:49:00 AM 40.0812 30.3880 127° Southeast  Level Estimated
Fri 02:50:00 AM 40.0114 30.5068 127° Southeast  Level Estimated
Fri 02:51:00 AM 39.9415 30.6254 128° Southeast  Level Estimated
Fri 02:52:00 AM 39.8715 30.7437 128° Southeast  Level Estimated
Fri 02:53:00 AM 39.8014 30.8618 128° Southeast  Level Estimated
Fri 02:54:00 AM 39.7311 30.9797 128° Southeast  Level Estimated
Fri 02:55:00 AM 39.6608 31.0973 128° Southeast  Level Estimated
Fri 02:56:00 AM 39.5903 31.2146 128° Southeast  Level Estimated
Fri 02:57:00 AM 39.5197 31.3317 128° Southeast  Level Estimated
Fri 02:58:00 AM 39.4490 31.4486 128° Southeast  Level Estimated
Fri 02:59:00 AM 39.3781 31.5653 128° Southeast  Level Estimated
Fri 03:00:00 AM 39.3072 31.6817 128° Southeast  Level Estimated
Fri 03:01:00 AM 39.2361 31.7979 128° Southeast  Level Estimated
Fri 03:02:00 AM 39.1649 31.9138 128° Southeast  Level Estimated
Fri 03:03:00 AM 39.0936 32.0295 128° Southeast  Level Estimated
Fri 03:04:00 AM 39.0222 32.1450 128° Southeast  Level Estimated
Fri 03:05:00 AM 38.9506 32.2602 129° Southeast  Level Estimated
Fri 03:06:00 AM 38.8790 32.3752 129° Southeast  Level Estimated
Fri 03:07:00 AM 38.8073 32.4900 129° Southeast  Level Estimated
Fri 03:08:00 AM 38.7354 32.6045 129° Southeast  Level Estimated
Fri 03:09:00 AM 38.6634 32.7188 129° Southeast  Level Estimated
Fri 03:10:00 AM 38.5913 32.8329 129° Southeast  Level Estimated
Fri 03:11:00 AM 38.5191 32.9468 129° Southeast  Level Estimated
Fri 03:12:00 AM 38.4468 33.0604 129° Southeast  Level Estimated
Fri 03:13:00 AM 38.3744 33.1738 129° Southeast  Level Estimated
Fri 03:14:00 AM 38.3019 33.2870 129° Southeast  Level Estimated
Fri 03:15:00 AM 38.2292 33.3999 129° Southeast  Level Estimated
Fri 03:16:00 AM 38.1565 33.5126 129° Southeast  Level Estimated
Fri 03:17:00 AM 38.0836 33.6251 129° Southeast  Level Estimated
Fri 03:18:00 AM 38.0107 33.7374 129° Southeast  Level Estimated
Fri 03:19:00 AM 37.9376 33.8494 130° Southeast  Level Estimated
Fri 03:20:00 AM 37.8644 33.9613 130° Southeast  Level Estimated
Fri 03:21:00 AM 37.7912 34.0729 130° Southeast  Level Estimated
Fri 03:22:00 AM 37.7178 34.1843 130° Southeast  Level Estimated
Fri 03:23:00 AM 37.6443 34.2954 130° Southeast  Level Estimated
Fri 03:24:00 AM 37.5707 34.4064 130° Southeast  Level Estimated
Fri 03:25:00 AM 37.4970 34.5171 130° Southeast  Level Estimated
Fri 03:26:00 AM 37.4232 34.6276 130° Southeast  Level Estimated
Fri 03:27:00 AM 37.3493 34.7379 130° Southeast  Level Estimated
Fri 03:28:00 AM 37.2753 34.8479 130° Southeast  Level Estimated
Fri 03:29:00 AM 37.2012 34.9578 130° Southeast  Level Estimated
Fri 03:30:00 AM 37.1270 35.0674 130° Southeast  Level Estimated
Fri 03:31:00 AM 37.0527 35.1768 130° Southeast  Level Estimated
Fri 03:32:00 AM 36.9822 35.2804 130° Southeast  Level Estimated
Fri 03:33:00 AM 36.9822 35.2804 North  Level Estimated
Fri 03:34:00 AM 36.9822 35.2804 North  Level Estimated
Fri 03:35:00 AM 36.9822 35.2804 North  Level Estimated
Fri 03:36:00 AM 36.9822 35.2804 North  Level Estimated
Fri 03:37:00 AM 36.9822 35.2804 North  Level Estimated
Fri 03:38:00 AM 36.9822 35.2804 North  Level Estimated
Fri 03:39:00 AM 36.9822 35.2804 North  Level Estimated
Fri 03:40:00 AM 36.9822 35.2804 North  Level Estimated
Fri 03:41:00 AM 36.9822 35.2804 North  Level Estimated
Fri 03:42:00 AM 36.9822 35.2804 North  Level Estimated
Fri 03:43:00 AM 36.9822 35.2804 North  Level Estimated
Fri 03:44:00 AM 36.9822 35.2804 North  Level Estimated
Fri 03:45:00 AM 36.9822 35.2804 North  Level Estimated
Fri 03:46:00 AM 36.9822 35.2804 North  Level Estimated
Fri 03:47:00 AM 36.9822 35.2804 North  Level Estimated
Fri 03:48:00 AM 36.9822 35.2804 North  Level Estimated

Login

Don't have an account? Register now (free) for customized features, flight alerts, and more!